sensor_id;sensor_type;location;lat;lon;timestamp;temperature;humidity
21191;DHT22;10753;52.304;20.990;2022-08-19T00:01:23;22.80;1.00
21191;DHT22;10753;52.304;20.990;2022-08-19T00:03:50;22.70;1.00
21191;DHT22;10753;52.304;20.990;2022-08-19T00:06:16;22.80;1.00
21191;DHT22;10753;52.304;20.990;2022-08-19T00:08:41;22.70;1.00
21191;DHT22;10753;52.304;20.990;2022-08-19T00:11:08;22.70;1.00
21191;DHT22;10753;52.304;20.990;2022-08-19T00:13:34;22.70;1.00
21191;DHT22;10753;52.304;20.990;2022-08-19T00:16:00;22.60;1.00
21191;DHT22;10753;52.304;20.990;2022-08-19T00:18:26;22.60;1.00
21191;DHT22;10753;52.304;20.990;2022-08-19T00:20:52;22.60;1.00
21191;DHT22;10753;52.304;20.990;2022-08-19T00:23:18;22.60;1.00
21191;DHT22;10753;52.304;20.990;2022-08-19T00:25:44;22.50;1.00
21191;DHT22;10753;52.304;20.990;2022-08-19T00:28:09;22.50;1.00
21191;DHT22;10753;52.304;20.990;2022-08-19T00:30:35;22.60;1.00
21191;DHT22;10753;52.304;20.990;2022-08-19T00:33:00;22.60;1.00
21191;DHT22;10753;52.304;20.990;2022-08-19T00:35:26;22.60;1.00
21191;DHT22;10753;52.304;20.990;2022-08-19T00:37:53;22.60;1.00
21191;DHT22;10753;52.304;20.990;2022-08-19T00:40:19;22.50;1.00
21191;DHT22;10753;52.304;20.990;2022-08-19T00:42:45;22.50;1.00
21191;DHT22;10753;52.304;20.990;2022-08-19T00:45:17;22.50;55.50
21191;DHT22;10753;52.304;20.990;2022-08-19T00:47:44;22.40;99.90
21191;DHT22;10753;52.304;20.990;2022-08-19T00:50:12;22.50;99.90
21191;DHT22;10753;52.304;20.990;2022-08-19T00:52:42;22.30;99.90
21191;DHT22;10753;52.304;20.990;2022-08-19T00:55:15;22.30;99.90
21191;DHT22;10753;52.304;20.990;2022-08-19T00:57:47;22.30;99.90
21191;DHT22;10753;52.304;20.990;2022-08-19T01:00:18;22.20;1.00
21191;DHT22;10753;52.304;20.990;2022-08-19T01:02:44;22.10;1.00
21191;DHT22;10753;52.304;20.990;2022-08-19T01:05:14;22.20;22.60
21191;DHT22;10753;52.304;20.990;2022-08-19T01:07:41;22.20;99.90
21191;DHT22;10753;52.304;20.990;2022-08-19T01:10:10;22.30;99.90
21191;DHT22;10753;52.304;20.990;2022-08-19T01:12:38;22.20;1.00
21191;DHT22;10753;52.304;20.990;2022-08-19T01:15:10;22.20;1.00
21191;DHT22;10753;52.304;20.990;2022-08-19T01:17:38;22.10;1.00
21191;DHT22;10753;52.304;20.990;2022-08-19T01:20:04;22.10;1.00
21191;DHT22;10753;52.304;20.990;2022-08-19T01:22:40;22.00;63.80
21191;DHT22;10753;52.304;20.990;2022-08-19T01:25:07;22.00;99.90
21191;DHT22;10753;52.304;20.990;2022-08-19T01:27:43;21.90;99.90
21191;DHT22;10753;52.304;20.990;2022-08-19T01:30:15;21.90;99.90
21191;DHT22;10753;52.304;20.990;2022-08-19T01:32:41;21.90;99.90
21191;DHT22;10753;52.304;20.990;2022-08-19T01:35:09;21.90;1.00
21191;DHT22;10753;52.304;20.990;2022-08-19T01:37:47;21.80;99.90
21191;DHT22;10753;52.304;20.990;2022-08-19T01:40:13;21.70;1.00
21191;DHT22;10753;52.304;20.990;2022-08-19T01:42:39;21.70;1.00
21191;DHT22;10753;52.304;20.990;2022-08-19T01:45:06;21.70;1.00
21191;DHT22;10753;52.304;20.990;2022-08-19T01:47:36;21.60;1.00
21191;DHT22;10753;52.304;20.990;2022-08-19T01:50:04;21.50;1.00
21191;DHT22;10753;52.304;20.990;2022-08-19T01:52:30;21.50;1.00
21191;DHT22;10753;52.304;20.990;2022-08-19T01:54:56;21.50;99.90
21191;DHT22;10753;52.304;20.990;2022-08-19T01:57:21;21.40;99.90
21191;DHT22;10753;52.304;20.990;2022-08-19T01:59:47;21.50;1.00
21191;DHT22;10753;52.304;20.990;2022-08-19T02:02:13;21.80;58.60
21191;DHT22;10753;52.304;20.990;2022-08-19T02:04:39;21.80;1.00
21191;DHT22;10753;52.304;20.990;2022-08-19T02:07:06;21.80;1.00
21191;DHT22;10753;52.304;20.990;2022-08-19T02:09:33;21.80;1.00
21191;DHT22;10753;52.304;20.990;2022-08-19T02:11:59;21.80;1.00
21191;DHT22;10753;52.304;20.990;2022-08-19T02:14:24;21.80;1.00
21191;DHT22;10753;52.304;20.990;2022-08-19T02:16:50;21.80;1.00
21191;DHT22;10753;52.304;20.990;2022-08-19T02:19:16;21.80;1.00
21191;DHT22;10753;52.304;20.990;2022-08-19T02:21:42;21.70;99.90
21191;DHT22;10753;52.304;20.990;2022-08-19T02:24:09;21.80;99.90
21191;DHT22;10753;52.304;20.990;2022-08-19T02:26:35;21.70;99.90
21191;DHT22;10753;52.304;20.990;2022-08-19T02:29:00;21.60;1.00
21191;DHT22;10753;52.304;20.990;2022-08-19T02:31:26;21.60;1.00
21191;DHT22;10753;52.304;20.990;2022-08-19T02:33:53;21.50;1.00
21191;DHT22;10753;52.304;20.990;2022-08-19T02:36:20;21.40;99.90
21191;DHT22;10753;52.304;20.990;2022-08-19T02:38:46;21.40;99.90
21191;DHT22;10753;52.304;20.990;2022-08-19T02:41:15;21.30;99.90
21191;DHT22;10753;52.304;20.990;2022-08-19T02:43:41;21.30;99.90
21191;DHT22;10753;52.304;20.990;2022-08-19T02:46:19;21.20;99.90
21191;DHT22;10753;52.304;20.990;2022-08-19T02:48:51;21.10;99.90
21191;DHT22;10753;52.304;20.990;2022-08-19T02:51:23;21.00;1.00
21191;DHT22;10753;52.304;20.990;2022-08-19T02:53:49;21.00;1.00
21191;DHT22;10753;52.304;20.990;2022-08-19T02:56:15;21.00;99.90
21191;DHT22;10753;52.304;20.990;2022-08-19T02:58:41;21.10;1.00
21191;DHT22;10753;52.304;20.990;2022-08-19T03:01:07;21.10;99.90
21191;DHT22;10753;52.304;20.990;2022-08-19T03:03:33;21.10;99.90
21191;DHT22;10753;52.304;20.990;2022-08-19T03:06:11;21.10;99.90
21191;DHT22;10753;52.304;20.990;2022-08-19T03:08:38;21.10;99.90
21191;DHT22;10753;52.304;20.990;2022-08-19T03:11:04;21.00;99.90
21191;DHT22;10753;52.304;20.990;2022-08-19T03:13:30;21.00;99.90
21191;DHT22;10753;52.304;20.990;2022-08-19T03:15:56;21.10;1.00
21191;DHT22;10753;52.304;20.990;2022-08-19T03:18:22;21.10;1.00
21191;DHT22;10753;52.304;20.990;2022-08-19T03:20:50;21.20;99.90
21191;DHT22;10753;52.304;20.990;2022-08-19T03:23:18;21.20;99.90
21191;DHT22;10753;52.304;20.990;2022-08-19T03:25:46;21.20;99.90
21191;DHT22;10753;52.304;20.990;2022-08-19T03:28:13;21.20;1.00
21191;DHT22;10753;52.304;20.990;2022-08-19T03:30:40;21.20;1.00
21191;DHT22;10753;52.304;20.990;2022-08-19T03:33:07;21.10;1.00
21191;DHT22;10753;52.304;20.990;2022-08-19T03:35:33;21.10;1.00
21191;DHT22;10753;52.304;20.990;2022-08-19T03:38:03;21.00;1.00
21191;DHT22;10753;52.304;20.990;2022-08-19T03:40:29;20.90;99.90
21191;DHT22;10753;52.304;20.990;2022-08-19T03:42:56;20.90;1.00
21191;DHT22;10753;52.304;20.990;2022-08-19T03:45:22;20.90;1.00
21191;DHT22;10753;52.304;20.990;2022-08-19T03:47:48;20.90;1.00
21191;DHT22;10753;52.304;20.990;2022-08-19T03:50:14;20.90;1.00
21191;DHT22;10753;52.304;20.990;2022-08-19T03:52:39;20.90;1.00
21191;DHT22;10753;52.304;20.990;2022-08-19T03:55:06;21.00;99.90
21191;DHT22;10753;52.304;20.990;2022-08-19T03:57:33;21.00;1.00
21191;DHT22;10753;52.304;20.990;2022-08-19T04:00:00;21.10;1.00
21191;DHT22;10753;52.304;20.990;2022-08-19T04:02:26;21.10;1.00
21191;DHT22;10753;52.304;20.990;2022-08-19T04:04:53;21.30;1.00
21191;DHT22;10753;52.304;20.990;2022-08-19T04:07:20;21.30;99.90
21191;DHT22;10753;52.304;20.990;2022-08-19T04:09:47;21.40;99.90
21191;DHT22;10753;52.304;20.990;2022-08-19T04:12:13;21.50;1.00
21191;DHT22;10753;52.304;20.990;2022-08-19T04:14:40;21.60;1.00
21191;DHT22;10753;52.304;20.990;2022-08-19T04:17:06;21.70;1.00
21191;DHT22;10753;52.304;20.990;2022-08-19T04:19:34;21.80;1.00
21191;DHT22;10753;52.304;20.990;2022-08-19T04:21:59;22.00;1.00
21191;DHT22;10753;52.304;20.990;2022-08-19T04:24:25;22.20;99.90
21191;DHT22;10753;52.304;20.990;2022-08-19T04:26:51;22.30;1.00
21191;DHT22;10753;52.304;20.990;2022-08-19T04:29:20;22.50;1.00
21191;DHT22;10753;52.304;20.990;2022-08-19T04:31:47;22.60;99.90
21191;DHT22;10753;52.304;20.990;2022-08-19T04:34:16;22.80;1.00
21191;DHT22;10753;52.304;20.990;2022-08-19T04:36:44;22.90;1.00
21191;DHT22;10753;52.304;20.990;2022-08-19T04:39:17;23.10;1.00
21191;DHT22;10753;52.304;20.990;2022-08-19T04:41:44;23.30;99.90
21191;DHT22;10753;52.304;20.990;2022-08-19T04:44:30;23.60;1.00
21191;DHT22;10753;52.304;20.990;2022-08-19T04:46:56;23.70;1.00
21191;DHT22;10753;52.304;20.990;2022-08-19T04:49:23;23.90;1.00
21191;DHT22;10753;52.304;20.990;2022-08-19T04:51:50;24.10;99.90
21191;DHT22;10753;52.304;20.990;2022-08-19T04:54:17;24.30;99.90
21191;DHT22;10753;52.304;20.990;2022-08-19T04:56:43;24.50;99.90
21191;DHT22;10753;52.304;20.990;2022-08-19T04:59:09;24.60;1.00
21191;DHT22;10753;52.304;20.990;2022-08-19T05:01:36;24.80;1.00
21191;DHT22;10753;52.304;20.990;2022-08-19T05:04:04;24.90;1.00
21191;DHT22;10753;52.304;20.990;2022-08-19T05:06:32;25.10;1.00
21191;DHT22;10753;52.304;20.990;2022-08-19T05:09:00;25.20;1.00
21191;DHT22;10753;52.304;20.990;2022-08-19T05:11:28;25.20;1.00
21191;DHT22;10753;52.304;20.990;2022-08-19T05:13:55;25.20;1.00
21191;DHT22;10753;52.304;20.990;2022-08-19T05:16:22;25.10;1.00
21191;DHT22;10753;52.304;20.990;2022-08-19T05:18:49;25.00;1.00
21191;DHT22;10753;52.304;20.990;2022-08-19T05:21:34;25.00;1.00
21191;DHT22;10753;52.304;20.990;2022-08-19T05:24:19;25.00;1.00
21191;DHT22;10753;52.304;20.990;2022-08-19T05:26:48;24.90;1.00
21191;DHT22;10753;52.304;20.990;2022-08-19T05:29:15;24.90;1.00
21191;DHT22;10753;52.304;20.990;2022-08-19T05:31:41;24.80;1.00
21191;DHT22;10753;52.304;20.990;2022-08-19T05:34:07;24.90;1.00
21191;DHT22;10753;52.304;20.990;2022-08-19T05:36:37;25.00;1.00
21191;DHT22;10753;52.304;20.990;2022-08-19T05:39:18;25.20;1.00
21191;DHT22;10753;52.304;20.990;2022-08-19T05:41:48;25.50;1.00
21191;DHT22;10753;52.304;20.990;2022-08-19T05:44:14;25.70;99.90
21191;DHT22;10753;52.304;20.990;2022-08-19T05:46:43;25.90;99.90
21191;DHT22;10753;52.304;20.990;2022-08-19T05:49:13;26.10;99.90
21191;DHT22;10753;52.304;20.990;2022-08-19T05:51:39;26.20;99.90
21191;DHT22;10753;52.304;20.990;2022-08-19T05:54:05;26.40;99.90
21191;DHT22;10753;52.304;20.990;2022-08-19T05:56:31;26.40;99.90
21191;DHT22;10753;52.304;20.990;2022-08-19T05:58:58;26.60;99.90
21191;DHT22;10753;52.304;20.990;2022-08-19T06:01:26;26.70;99.90
21191;DHT22;10753;52.304;20.990;2022-08-19T06:03:52;26.90;99.90
21191;DHT22;10753;52.304;20.990;2022-08-19T06:06:18;27.00;99.90
21191;DHT22;10753;52.304;20.990;2022-08-19T06:08:44;27.20;99.90
21191;DHT22;10753;52.304;20.990;2022-08-19T06:11:25;27.40;99.90
21191;DHT22;10753;52.304;20.990;2022-08-19T06:13:59;27.70;86.80
21191;DHT22;10753;52.304;20.990;2022-08-19T06:16:26;28.10;38.00
21191;DHT22;10753;52.304;20.990;2022-08-19T06:18:53;28.80;1.00
21191;DHT22;10753;52.304;20.990;2022-08-19T06:21:21;30.00;1.00
21191;DHT22;10753;52.304;20.990;2022-08-19T06:23:48;31.70;1.00
21191;DHT22;10753;52.304;20.990;2022-08-19T06:26:15;32.80;1.00
21191;DHT22;10753;52.304;20.990;2022-08-19T06:28:41;34.20;1.00
21191;DHT22;10753;52.304;20.990;2022-08-19T06:31:16;35.30;1.00
21191;DHT22;10753;52.304;20.990;2022-08-19T06:33:42;36.50;1.00
21191;DHT22;10753;52.304;20.990;2022-08-19T06:36:19;37.40;1.00
21191;DHT22;10753;52.304;20.990;2022-08-19T06:38:45;38.00;1.00
21191;DHT22;10753;52.304;20.990;2022-08-19T06:41:11;38.30;1.00
21191;DHT22;10753;52.304;20.990;2022-08-19T06:43:36;38.30;1.00
21191;DHT22;10753;52.304;20.990;2022-08-19T06:46:02;38.40;1.00
21191;DHT22;10753;52.304;20.990;2022-08-19T06:48:29;37.70;1.00
21191;DHT22;10753;52.304;20.990;2022-08-19T06:50:55;36.80;1.00
21191;DHT22;10753;52.304;20.990;2022-08-19T06:53:21;37.30;1.00
21191;DHT22;10753;52.304;20.990;2022-08-19T06:55:47;38.20;1.00
21191;DHT22;10753;52.304;20.990;2022-08-19T06:58:13;39.10;1.00
21191;DHT22;10753;52.304;20.990;2022-08-19T07:00:39;39.80;1.00
21191;DHT22;10753;52.304;20.990;2022-08-19T07:03:05;40.60;1.00
21191;DHT22;10753;52.304;20.990;2022-08-19T07:05:31;41.30;1.00
21191;DHT22;10753;52.304;20.990;2022-08-19T07:07:56;42.50;1.00
21191;DHT22;10753;52.304;20.990;2022-08-19T07:10:22;42.60;1.00
21191;DHT22;10753;52.304;20.990;2022-08-19T07:12:48;42.40;1.00
21191;DHT22;10753;52.304;20.990;2022-08-19T07:15:15;43.40;1.00
21191;DHT22;10753;52.304;20.990;2022-08-19T07:17:41;41.90;1.00
21191;DHT22;10753;52.304;20.990;2022-08-19T07:20:09;40.70;1.00
21191;DHT22;10753;52.304;20.990;2022-08-19T07:22:39;38.40;1.00
21191;DHT22;10753;52.304;20.990;2022-08-19T07:25:06;36.40;1.00
21191;DHT22;10753;52.304;20.990;2022-08-19T07:27:32;35.30;1.00
21191;DHT22;10753;52.304;20.990;2022-08-19T07:29:59;36.00;1.00
21191;DHT22;10753;52.304;20.990;2022-08-19T07:32:25;38.40;1.00
21191;DHT22;10753;52.304;20.990;2022-08-19T07:34:55;40.20;1.00
21191;DHT22;10753;52.304;20.990;2022-08-19T07:37:21;41.20;1.00
21191;DHT22;10753;52.304;20.990;2022-08-19T07:39:47;41.40;1.00
21191;DHT22;10753;52.304;20.990;2022-08-19T07:42:12;41.90;1.00
21191;DHT22;10753;52.304;20.990;2022-08-19T07:44:40;42.60;1.00
21191;DHT22;10753;52.304;20.990;2022-08-19T07:47:06;43.50;1.00
21191;DHT22;10753;52.304;20.990;2022-08-19T07:49:32;44.00;1.00
21191;DHT22;10753;52.304;20.990;2022-08-19T07:52:02;44.90;1.00
21191;DHT22;10753;52.304;20.990;2022-08-19T07:54:30;45.70;1.00
21191;DHT22;10753;52.304;20.990;2022-08-19T07:56:56;46.00;1.00
21191;DHT22;10753;52.304;20.990;2022-08-19T07:59:23;45.60;1.00
21191;DHT22;10753;52.304;20.990;2022-08-19T08:01:49;45.30;1.00
21191;DHT22;10753;52.304;20.990;2022-08-19T08:04:17;44.50;1.00
21191;DHT22;10753;52.304;20.990;2022-08-19T08:07:01;43.70;1.00
21191;DHT22;10753;52.304;20.990;2022-08-19T08:09:48;42.60;1.00
21191;DHT22;10753;52.304;20.990;2022-08-19T08:12:20;41.90;1.00
21191;DHT22;10753;52.304;20.990;2022-08-19T08:14:51;41.50;1.00
21191;DHT22;10753;52.304;20.990;2022-08-19T08:17:22;41.30;1.00
21191;DHT22;10753;52.304;20.990;2022-08-19T08:19:48;41.60;1.00
21191;DHT22;10753;52.304;20.990;2022-08-19T08:22:18;42.30;1.00
21191;DHT22;10753;52.304;20.990;2022-08-19T08:27:37;42.50;1.00
21191;DHT22;10753;52.304;20.990;2022-08-19T08:30:22;43.10;1.00
21191;DHT22;10753;52.304;20.990;2022-08-19T08:32:49;43.70;1.00
21191;DHT22;10753;52.304;20.990;2022-08-19T08:35:17;44.70;1.00
21191;DHT22;10753;52.304;20.990;2022-08-19T08:37:44;45.80;1.00
21191;DHT22;10753;52.304;20.990;2022-08-19T08:43:07;47.30;1.00
21191;DHT22;10753;52.304;20.990;2022-08-19T08:45:35;48.20;1.00
21191;DHT22;10753;52.304;20.990;2022-08-19T08:48:07;48.50;1.00
21191;DHT22;10753;52.304;20.990;2022-08-19T08:50:42;49.20;1.00
21191;DHT22;10753;52.304;20.990;2022-08-19T08:53:16;50.00;1.00
21191;DHT22;10753;52.304;20.990;2022-08-19T08:55:42;50.50;1.00
21191;DHT22;10753;52.304;20.990;2022-08-19T08:58:30;50.60;1.00
21191;DHT22;10753;52.304;20.990;2022-08-19T09:00:57;49.70;1.00
21191;DHT22;10753;52.304;20.990;2022-08-19T09:03:26;49.50;1.00
21191;DHT22;10753;52.304;20.990;2022-08-19T09:06:03;49.40;1.00
21191;DHT22;10753;52.304;20.990;2022-08-19T09:17:00;48.40;1.00
21191;DHT22;10753;52.304;20.990;2022-08-19T09:19:29;48.40;1.00
21191;DHT22;10753;52.304;20.990;2022-08-19T09:21:55;48.60;1.00
21191;DHT22;10753;52.304;20.990;2022-08-19T09:24:21;49.20;1.00
21191;DHT22;10753;52.304;20.990;2022-08-19T09:26:47;49.20;1.00
21191;DHT22;10753;52.304;20.990;2022-08-19T09:29:12;49.60;1.00
21191;DHT22;10753;52.304;20.990;2022-08-19T09:31:38;50.10;1.00
21191;DHT22;10753;52.304;20.990;2022-08-19T09:34:04;50.10;1.00
21191;DHT22;10753;52.304;20.990;2022-08-19T09:36:31;50.10;1.00
21191;DHT22;10753;52.304;20.990;2022-08-19T09:39:03;50.00;1.00
21191;DHT22;10753;52.304;20.990;2022-08-19T09:41:29;50.40;1.00
21191;DHT22;10753;52.304;20.990;2022-08-19T09:43:56;50.10;1.00
21191;DHT22;10753;52.304;20.990;2022-08-19T09:46:27;50.20;1.00
21191;DHT22;10753;52.304;20.990;2022-08-19T09:48:53;50.60;1.00
21191;DHT22;10753;52.304;20.990;2022-08-19T09:51:23;50.20;1.00
21191;DHT22;10753;52.304;20.990;2022-08-19T09:53:50;50.10;1.00
21191;DHT22;10753;52.304;20.990;2022-08-19T09:56:18;50.40;1.00
21191;DHT22;10753;52.304;20.990;2022-08-19T09:58:44;50.10;1.00
21191;DHT22;10753;52.304;20.990;2022-08-19T10:01:22;49.90;1.00
21191;DHT22;10753;52.304;20.990;2022-08-19T10:03:52;49.60;1.00
21191;DHT22;10753;52.304;20.990;2022-08-19T10:06:19;50.20;1.00
21191;DHT22;10753;52.304;20.990;2022-08-19T10:08:46;50.70;1.00
21191;DHT22;10753;52.304;20.990;2022-08-19T10:11:12;50.10;1.00
21191;DHT22;10753;52.304;20.990;2022-08-19T10:13:39;49.90;1.00
21191;DHT22;10753;52.304;20.990;2022-08-19T10:16:08;50.00;1.00
21191;DHT22;10753;52.304;20.990;2022-08-19T10:18:35;50.10;1.00
21191;DHT22;10753;52.304;20.990;2022-08-19T10:21:08;49.10;1.00
21191;DHT22;10753;52.304;20.990;2022-08-19T10:23:34;49.50;1.00
21191;DHT22;10753;52.304;20.990;2022-08-19T10:26:01;49.40;1.00
21191;DHT22;10753;52.304;20.990;2022-08-19T10:28:26;49.60;1.00
21191;DHT22;10753;52.304;20.990;2022-08-19T10:30:52;49.00;1.00
21191;DHT22;10753;52.304;20.990;2022-08-19T10:33:18;49.40;1.00
21191;DHT22;10753;52.304;20.990;2022-08-19T10:35:44;48.50;1.00
21191;DHT22;10753;52.304;20.990;2022-08-19T10:38:12;48.30;1.00
21191;DHT22;10753;52.304;20.990;2022-08-19T10:40:37;48.40;1.00
21191;DHT22;10753;52.304;20.990;2022-08-19T10:43:03;48.10;1.00
21191;DHT22;10753;52.304;20.990;2022-08-19T10:45:28;48.70;1.00
21191;DHT22;10753;52.304;20.990;2022-08-19T10:47:54;48.80;1.00
21191;DHT22;10753;52.304;20.990;2022-08-19T10:50:20;49.20;1.00
21191;DHT22;10753;52.304;20.990;2022-08-19T10:53:06;49.60;1.00
21191;DHT22;10753;52.304;20.990;2022-08-19T10:55:34;49.70;1.00
21191;DHT22;10753;52.304;20.990;2022-08-19T10:58:20;49.40;1.00
21191;DHT22;10753;52.304;20.990;2022-08-19T11:00:56;48.50;1.00
21191;DHT22;10753;52.304;20.990;2022-08-19T11:03:22;47.70;1.00
21191;DHT22;10753;52.304;20.990;2022-08-19T11:06:03;46.90;1.00
21191;DHT22;10753;52.304;20.990;2022-08-19T11:08:29;46.70;1.00
21191;DHT22;10753;52.304;20.990;2022-08-19T11:10:59;46.60;1.00
21191;DHT22;10753;52.304;20.990;2022-08-19T11:13:33;46.50;1.00
21191;DHT22;10753;52.304;20.990;2022-08-19T11:16:12;47.30;1.00
21191;DHT22;10753;52.304;20.990;2022-08-19T11:18:42;47.20;1.00
21191;DHT22;10753;52.304;20.990;2022-08-19T11:21:13;47.90;1.00
21191;DHT22;10753;52.304;20.990;2022-08-19T11:23:39;47.80;1.00
21191;DHT22;10753;52.304;20.990;2022-08-19T11:26:05;47.30;1.00
21191;DHT22;10753;52.304;20.990;2022-08-19T11:28:31;47.00;1.00
21191;DHT22;10753;52.304;20.990;2022-08-19T11:30:57;47.10;1.00
21191;DHT22;10753;52.304;20.990;2022-08-19T11:33:22;47.60;1.00
21191;DHT22;10753;52.304;20.990;2022-08-19T11:35:48;47.50;1.00
21191;DHT22;10753;52.304;20.990;2022-08-19T11:38:15;47.20;1.00
21191;DHT22;10753;52.304;20.990;2022-08-19T11:40:41;47.00;1.00
21191;DHT22;10753;52.304;20.990;2022-08-19T11:43:07;47.40;1.00
21191;DHT22;10753;52.304;20.990;2022-08-19T11:45:33;47.60;1.00
21191;DHT22;10753;52.304;20.990;2022-08-19T11:47:59;47.60;1.00
21191;DHT22;10753;52.304;20.990;2022-08-19T11:50:28;47.40;1.00
21191;DHT22;10753;52.304;20.990;2022-08-19T11:52:56;47.70;1.00
21191;DHT22;10753;52.304;20.990;2022-08-19T11:55:22;48.20;1.00
21191;DHT22;10753;52.304;20.990;2022-08-19T11:57:48;48.20;1.00
21191;DHT22;10753;52.304;20.990;2022-08-19T12:00:13;48.50;1.00
21191;DHT22;10753;52.304;20.990;2022-08-19T12:02:40;48.10;1.00
21191;DHT22;10753;52.304;20.990;2022-08-19T12:05:06;48.10;1.00
21191;DHT22;10753;52.304;20.990;2022-08-19T12:07:33;48.20;1.00
21191;DHT22;10753;52.304;20.990;2022-08-19T12:10:00;48.00;1.00
21191;DHT22;10753;52.304;20.990;2022-08-19T12:12:26;47.40;1.00
21191;DHT22;10753;52.304;20.990;2022-08-19T12:14:52;46.60;1.00
21191;DHT22;10753;52.304;20.990;2022-08-19T12:17:26;46.90;1.00
21191;DHT22;10753;52.304;20.990;2022-08-19T12:19:52;47.60;1.00
21191;DHT22;10753;52.304;20.990;2022-08-19T12:22:18;48.10;1.00
21191;DHT22;10753;52.304;20.990;2022-08-19T12:24:46;48.40;1.00
21191;DHT22;10753;52.304;20.990;2022-08-19T12:27:11;48.50;1.00
21191;DHT22;10753;52.304;20.990;2022-08-19T12:29:37;48.50;1.00
21191;DHT22;10753;52.304;20.990;2022-08-19T12:32:03;48.70;1.00
21191;DHT22;10753;52.304;20.990;2022-08-19T12:34:30;48.10;1.00
21191;DHT22;10753;52.304;20.990;2022-08-19T12:36:58;47.90;1.00
21191;DHT22;10753;52.304;20.990;2022-08-19T12:39:25;47.90;1.00
21191;DHT22;10753;52.304;20.990;2022-08-19T12:41:50;48.00;1.00
21191;DHT22;10753;52.304;20.990;2022-08-19T12:44:16;48.10;1.00
21191;DHT22;10753;52.304;20.990;2022-08-19T12:46:42;47.90;1.00
21191;DHT22;10753;52.304;20.990;2022-08-19T12:49:08;47.90;1.00
21191;DHT22;10753;52.304;20.990;2022-08-19T12:51:33;48.00;1.00
21191;DHT22;10753;52.304;20.990;2022-08-19T12:53:59;47.60;1.00
21191;DHT22;10753;52.304;20.990;2022-08-19T12:56:25;47.10;1.00
21191;DHT22;10753;52.304;20.990;2022-08-19T12:58:50;46.60;1.00
21191;DHT22;10753;52.304;20.990;2022-08-19T13:01:17;46.40;1.00
21191;DHT22;10753;52.304;20.990;2022-08-19T13:03:45;46.30;1.00
21191;DHT22;10753;52.304;20.990;2022-08-19T13:06:11;46.60;1.00
21191;DHT22;10753;52.304;20.990;2022-08-19T13:08:37;46.80;1.00
21191;DHT22;10753;52.304;20.990;2022-08-19T13:11:21;46.40;1.00
21191;DHT22;10753;52.304;20.990;2022-08-19T13:13:50;46.00;1.00
21191;DHT22;10753;52.304;20.990;2022-08-19T13:16:16;45.80;1.00
21191;DHT22;10753;52.304;20.990;2022-08-19T13:18:44;45.70;1.00
21191;DHT22;10753;52.304;20.990;2022-08-19T13:21:12;46.00;1.00
21191;DHT22;10753;52.304;20.990;2022-08-19T13:23:39;46.40;1.00
21191;DHT22;10753;52.304;20.990;2022-08-19T13:26:07;46.40;1.00
21191;DHT22;10753;52.304;20.990;2022-08-19T13:28:34;46.00;1.00
21191;DHT22;10753;52.304;20.990;2022-08-19T13:31:20;45.90;1.00
21191;DHT22;10753;52.304;20.990;2022-08-19T13:34:04;45.70;1.00
21191;DHT22;10753;52.304;20.990;2022-08-19T13:36:35;45.40;1.00
21191;DHT22;10753;52.304;20.990;2022-08-19T13:39:02;44.60;1.00
21191;DHT22;10753;52.304;20.990;2022-08-19T13:41:27;44.00;1.00
21191;DHT22;10753;52.304;20.990;2022-08-19T13:43:54;43.70;1.00
21191;DHT22;10753;52.304;20.990;2022-08-19T13:46:20;43.30;1.00
21191;DHT22;10753;52.304;20.990;2022-08-19T13:48:46;42.70;1.00
21191;DHT22;10753;52.304;20.990;2022-08-19T13:51:14;42.70;1.00
21191;DHT22;10753;52.304;20.990;2022-08-19T13:53:42;42.90;1.00
21191;DHT22;10753;52.304;20.990;2022-08-19T13:56:10;43.40;1.00
21191;DHT22;10753;52.304;20.990;2022-08-19T13:58:37;43.50;1.00
21191;DHT22;10753;52.304;20.990;2022-08-19T14:01:04;43.20;1.00
21191;DHT22;10753;52.304;20.990;2022-08-19T14:03:31;43.00;1.00
21191;DHT22;10753;52.304;20.990;2022-08-19T14:05:56;42.70;1.00
21191;DHT22;10753;52.304;20.990;2022-08-19T14:08:23;42.70;1.00
21191;DHT22;10753;52.304;20.990;2022-08-19T14:10:49;42.50;1.00
21191;DHT22;10753;52.304;20.990;2022-08-19T14:13:18;42.10;1.00
21191;DHT22;10753;52.304;20.990;2022-08-19T14:15:45;42.30;1.00
21191;DHT22;10753;52.304;20.990;2022-08-19T14:18:11;42.10;1.00
21191;DHT22;10753;52.304;20.990;2022-08-19T14:20:37;42.10;1.00
21191;DHT22;10753;52.304;20.990;2022-08-19T14:23:03;42.10;1.00
21191;DHT22;10753;52.304;20.990;2022-08-19T14:25:31;41.80;1.00
21191;DHT22;10753;52.304;20.990;2022-08-19T14:27:58;41.70;1.00
21191;DHT22;10753;52.304;20.990;2022-08-19T14:30:26;41.60;1.00
21191;DHT22;10753;52.304;20.990;2022-08-19T14:32:54;41.70;1.00
21191;DHT22;10753;52.304;20.990;2022-08-19T14:35:20;41.40;1.00
21191;DHT22;10753;52.304;20.990;2022-08-19T14:37:48;41.20;1.00
21191;DHT22;10753;52.304;20.990;2022-08-19T14:40:16;40.40;1.00
21191;DHT22;10753;52.304;20.990;2022-08-19T14:42:43;40.10;1.00
21191;DHT22;10753;52.304;20.990;2022-08-19T14:45:11;40.00;1.00
21191;DHT22;10753;52.304;20.990;2022-08-19T14:47:37;39.70;1.00
21191;DHT22;10753;52.304;20.990;2022-08-19T14:50:05;39.50;1.00
21191;DHT22;10753;52.304;20.990;2022-08-19T14:52:32;39.30;1.00
21191;DHT22;10753;52.304;20.990;2022-08-19T14:54:57;38.80;1.00
21191;DHT22;10753;52.304;20.990;2022-08-19T14:57:23;38.50;1.00
21191;DHT22;10753;52.304;20.990;2022-08-19T14:59:49;38.10;1.00
21191;DHT22;10753;52.304;20.990;2022-08-19T15:02:15;37.80;1.00
21191;DHT22;10753;52.304;20.990;2022-08-19T15:04:40;37.70;1.00
21191;DHT22;10753;52.304;20.990;2022-08-19T15:07:06;37.80;1.00
21191;DHT22;10753;52.304;20.990;2022-08-19T15:09:32;37.50;1.00
21191;DHT22;10753;52.304;20.990;2022-08-19T15:11:58;37.60;1.00
21191;DHT22;10753;52.304;20.990;2022-08-19T15:14:26;37.30;1.00
21191;DHT22;10753;52.304;20.990;2022-08-19T15:16:52;37.00;1.00
21191;DHT22;10753;52.304;20.990;2022-08-19T15:19:18;36.70;1.00
21191;DHT22;10753;52.304;20.990;2022-08-19T15:21:43;36.60;1.00
21191;DHT22;10753;52.304;20.990;2022-08-19T15:24:09;36.40;1.00
21191;DHT22;10753;52.304;20.990;2022-08-19T15:26:35;36.30;1.00
21191;DHT22;10753;52.304;20.990;2022-08-19T15:29:01;36.10;1.00
21191;DHT22;10753;52.304;20.990;2022-08-19T15:31:27;35.70;1.00
21191;DHT22;10753;52.304;20.990;2022-08-19T15:33:54;35.30;1.00
21191;DHT22;10753;52.304;20.990;2022-08-19T15:36:23;34.90;1.00
21191;DHT22;10753;52.304;20.990;2022-08-19T15:38:49;34.80;1.00
21191;DHT22;10753;52.304;20.990;2022-08-19T15:41:23;34.70;1.00
21191;DHT22;10753;52.304;20.990;2022-08-19T15:43:56;34.40;1.00
21191;DHT22;10753;52.304;20.990;2022-08-19T15:46:25;34.20;1.00